Time;durP1;ratioP1;P1;durP2;ratioP2;P2;SDS_P1;SDS_P2;PMS_P1;PMS_P2;Temp;Humidity;BMP_temperature;BMP_pressure;BME280_temperature;BME280_humidity;BME280_pressure;Samples;Min_cycle;Max_cycle;Signal;HPM_P1;HPM_P2
2021/10/13 01:01:13;;;;;;;10.98;7.25;;;;;;;;;;5157145;23;20042;-71
2021/10/13 01:03:44;;;;;;;10.50;7.15;;;;;;;;;;5017858;23;20044;-72
2021/10/13 01:06:30;;;;;;;11.95;6.88;;;;;;;;;;5047638;28;20029;-73
2021/10/13 01:09:21;;;;;;;11.35;6.63;;;;;;;;;;5038048;28;20093;-71
2021/10/13 01:12:22;;;;;;;9.60;6.40;;;;;;;;;;5045354;28;20097;-72
2021/10/13 01:15:15;;;;;;;10.13;6.75;;;;;;;;;;5032751;28;20049;-65
2021/10/13 01:18:06;;;;;;;11.00;6.82;;;;;;;;;;5013142;28;20708;-64
2021/10/13 01:20:58;;;;;;;11.07;7.65;;;;;;;;;;5048514;28;20063;-66
2021/10/13 01:24:15;;;;;;;15.68;7.90;;;;;;;;;;5069269;28;20075;-64
2021/10/13 01:27:04;;;;;;;10.55;7.70;;;;;;;;;;5000590;28;20119;-63
2021/10/13 01:29:50;;;;;;;10.60;7.70;;;;;;;;;;5028879;28;20025;-64
2021/10/13 01:32:36;;;;;;;11.70;8.02;;;;;;;;;;5006707;28;20103;-65
2021/10/13 01:35:22;;;;;;;14.73;9.27;;;;;;;;;;5029726;28;20029;-77
2021/10/13 01:38:08;;;;;;;12.52;7.97;;;;;;;;;;5042297;28;20044;-68
2021/10/13 01:40:54;;;;;;;9.77;6.82;;;;;;;;;;5045995;28;20033;-68
2021/10/13 01:43:42;;;;;;;9.90;6.78;;;;;;;;;;5047247;28;20052;-69
2021/10/13 01:46:27;;;;;;;9.50;6.95;;;;;;;;;;5039242;28;20037;-68
2021/10/13 01:49:14;;;;;;;14.13;6.80;;;;;;;;;;5030628;28;20029;-70
2021/10/13 01:51:59;;;;;;;9.90;7.68;;;;;;;;;;5042852;28;20082;-79
2021/10/13 01:54:44;;;;;;;12.23;6.07;;;;;;;;;;5047090;28;20041;-67
2021/10/13 01:57:31;;;;;;;9.75;6.55;;;;;;;;;;5006501;28;20187;-67
2021/10/13 02:00:17;;;;;;;10.20;6.32;;;;;;;;;;5004256;28;20069;-67
2021/10/13 02:03:05;;;;;;;11.32;6.60;;;;;;;;;;4996896;28;20655;-66
2021/10/13 02:05:52;;;;;;;11.00;6.43;;;;;;;;;;5023856;28;20024;-67
2021/10/13 02:08:37;;;;;;;9.52;5.93;;;;;;;;;;5047334;28;20393;-66
2021/10/13 02:11:25;;;;;;;8.23;5.90;;;;;;;;;;5057203;28;20041;-67
2021/10/13 02:14:12;;;;;;;9.60;6.05;;;;;;;;;;5043403;28;20446;-72
2021/10/13 02:16:58;;;;;;;9.15;6.32;;;;;;;;;;5045280;28;20028;-71
2021/10/13 02:19:45;;;;;;;10.73;6.47;;;;;;;;;;5052934;28;20387;-73
2021/10/13 02:22:31;;;;;;;10.15;5.35;;;;;;;;;;5062322;28;20036;-71
2021/10/13 02:25:16;;;;;;;9.18;5.82;;;;;;;;;;5036167;28;20041;-72
2021/10/13 02:28:09;;;;;;;10.93;6.53;;;;;;;;;;5035095;28;20043;-71
2021/10/13 02:30:54;;;;;;;10.98;7.78;;;;;;;;;;5066414;28;20467;-67
2021/10/13 02:33:39;;;;;;;10.45;7.32;;;;;;;;;;5039322;28;20037;-72
2021/10/13 02:36:24;;;;;;;14.88;7.95;;;;;;;;;;5046511;28;20037;-71
2021/10/13 02:39:10;;;;;;;11.75;7.40;;;;;;;;;;5049547;28;20507;-72
2021/10/13 02:41:55;;;;;;;10.38;6.95;;;;;;;;;;5044127;28;20032;-74
2021/10/13 02:44:40;;;;;;;10.05;6.95;;;;;;;;;;5036315;28;20037;-72
2021/10/13 02:47:30;;;;;;;12.18;6.40;;;;;;;;;;5033699;28;20449;-64
2021/10/13 02:50:26;;;;;;;11.13;7.70;;;;;;;;;;5050715;28;20036;-66
2021/10/13 02:53:21;;;;;;;12.95;7.80;;;;;;;;;;5036376;28;20370;-65
2021/10/13 02:56:19;;;;;;;12.25;8.10;;;;;;;;;;5048153;28;20098;-65
2021/10/13 02:59:04;;;;;;;10.20;7.18;;;;;;;;;;5052051;28;20104;-65
2021/10/13 03:01:51;;;;;;;11.15;7.65;;;;;;;;;;5032483;28;20041;-67
2021/10/13 03:04:43;;;;;;;10.32;7.20;;;;;;;;;;5036940;28;20029;-65
2021/10/13 03:07:31;;;;;;;13.40;8.77;;;;;;;;;;5046624;28;20541;-69
2021/10/13 03:10:17;;;;;;;11.30;7.43;;;;;;;;;;5041785;28;20447;-64
2021/10/13 03:13:05;;;;;;;11.23;7.85;;;;;;;;;;5051485;28;20486;-64
2021/10/13 03:15:52;;;;;;;13.23;8.77;;;;;;;;;;5039085;28;20068;-66
2021/10/13 03:18:38;;;;;;;11.02;7.53;;;;;;;;;;5039310;28;20029;-66
2021/10/13 03:21:27;;;;;;;11.98;8.18;;;;;;;;;;5043941;28;20029;-65
2021/10/13 03:24:14;;;;;;;14.80;7.97;;;;;;;;;;5037037;28;20033;-69
2021/10/13 03:27:00;;;;;;;11.65;7.72;;;;;;;;;;5037944;28;20033;-64
2021/10/13 03:29:46;;;;;;;11.50;7.10;;;;;;;;;;5032575;28;20529;-64
2021/10/13 03:32:31;;;;;;;12.95;7.85;;;;;;;;;;5036867;28;20033;-63
2021/10/13 03:35:34;;;;;;;12.95;8.57;;;;;;;;;;5051667;28;20407;-65
2021/10/13 03:38:20;;;;;;;10.52;8.10;;;;;;;;;;5045522;28;20036;-65
2021/10/13 03:41:05;;;;;;;12.52;8.40;;;;;;;;;;5033257;28;20162;-66
2021/10/13 03:43:50;;;;;;;12.98;8.70;;;;;;;;;;5037023;28;20090;-68
2021/10/13 03:46:37;;;;;;;11.57;8.13;;;;;;;;;;5027589;28;20047;-66
2021/10/13 03:49:22;;;;;;;12.90;7.72;;;;;;;;;;5046030;28;20115;-67
2021/10/13 03:52:07;;;;;;;10.13;7.63;;;;;;;;;;5023970;28;20156;-69
2021/10/13 03:54:53;;;;;;;12.02;8.30;;;;;;;;;;5049363;28;20065;-66
2021/10/13 03:57:38;;;;;;;11.98;8.85;;;;;;;;;;5039686;28;20041;-66
2021/10/13 04:00:24;;;;;;;12.18;7.22;;;;;;;;;;5049223;28;20087;-66
2021/10/13 04:03:09;;;;;;;10.73;7.80;;;;;;;;;;5052780;28;20039;-63
2021/10/13 04:05:55;;;;;;;10.85;6.90;;;;;;;;;;5048646;28;20120;-71
2021/10/13 04:08:40;;;;;;;11.65;6.90;;;;;;;;;;5037049;28;20071;-70
2021/10/13 04:11:25;;;;;;;12.05;7.20;;;;;;;;;;5032380;28;20436;-70
2021/10/13 04:14:11;;;;;;;11.63;6.90;;;;;;;;;;5044176;28;20021;-71
2021/10/13 04:16:56;;;;;;;12.70;8.13;;;;;;;;;;5055461;28;20047;-72
2021/10/13 04:19:41;;;;;;;11.38;7.43;;;;;;;;;;5049458;28;20128;-64
2021/10/13 04:22:26;;;;;;;10.32;7.35;;;;;;;;;;5050003;28;20042;-69
2021/10/13 04:25:12;;;;;;;11.07;7.22;;;;;;;;;;5041626;28;20040;-68
2021/10/13 04:27:57;;;;;;;13.02;7.03;;;;;;;;;;5058195;28;20039;-70
2021/10/13 04:30:42;;;;;;;12.82;7.00;;;;;;;;;;5043123;28;20033;-68
2021/10/13 04:33:27;;;;;;;10.73;7.53;;;;;;;;;;5015886;28;20029;-68
2021/10/13 04:36:13;;;;;;;10.98;6.85;;;;;;;;;;5050569;28;20098;-69
2021/10/13 04:38:58;;;;;;;11.43;7.38;;;;;;;;;;5046264;28;20032;-64
2021/10/13 04:41:43;;;;;;;11.65;6.95;;;;;;;;;;5041112;28;20056;-66
2021/10/13 04:44:29;;;;;;;12.05;7.72;;;;;;;;;;5048290;28;20047;-66
2021/10/13 04:47:14;;;;;;;11.07;7.35;;;;;;;;;;5048547;28;20461;-66
2021/10/13 04:49:59;;;;;;;12.15;7.50;;;;;;;;;;5040489;28;20025;-67
2021/10/13 04:52:44;;;;;;;13.02;8.15;;;;;;;;;;5058326;28;20037;-68
2021/10/13 04:55:30;;;;;;;11.63;7.57;;;;;;;;;;5058552;28;20033;-67
2021/10/13 04:58:15;;;;;;;11.07;7.13;;;;;;;;;;5048211;28;20595;-68
2021/10/13 05:01:00;;;;;;;12.65;8.07;;;;;;;;;;5043811;28;20040;-78
2021/10/13 05:03:46;;;;;;;15.52;8.02;;;;;;;;;;5062211;28;20045;-77
2021/10/13 05:06:31;;;;;;;12.23;7.32;;;;;;;;;;5037075;28;20036;-80
2021/10/13 05:09:16;;;;;;;11.93;8.00;;;;;;;;;;5030719;28;20490;-77
2021/10/13 05:12:01;;;;;;;88.97;66.05;;;;;;;;;;5037817;28;20082;-76
2021/10/13 05:14:47;;;;;;;18.88;10.93;;;;;;;;;;5034183;28;20039;-68
2021/10/13 05:17:32;;;;;;;12.55;8.00;;;;;;;;;;5051079;28;20494;-67
2021/10/13 05:20:17;;;;;;;12.13;6.78;;;;;;;;;;5046301;28;20021;-67
2021/10/13 05:23:03;;;;;;;12.02;7.32;;;;;;;;;;5038984;28;20505;-67
2021/10/13 05:25:48;;;;;;;11.80;6.97;;;;;;;;;;5051675;28;20111;-66
2021/10/13 05:28:33;;;;;;;11.07;7.47;;;;;;;;;;5045015;28;20036;-69
2021/10/13 05:31:18;;;;;;;14.25;8.07;;;;;;;;;;5052699;28;20461;-65
2021/10/13 05:34:04;;;;;;;12.18;8.10;;;;;;;;;;5045721;28;20068;-64
2021/10/13 05:36:49;;;;;;;13.63;8.50;;;;;;;;;;5030941;28;20041;-67
2021/10/13 05:39:34;;;;;;;12.55;8.45;;;;;;;;;;5047353;28;20453;-70
2021/10/13 05:42:19;;;;;;;11.60;8.20;;;;;;;;;;5051146;28;20041;-66
2021/10/13 05:45:05;;;;;;;12.63;8.35;;;;;;;;;;5047541;28;20037;-68
2021/10/13 05:47:50;;;;;;;16.10;9.85;;;;;;;;;;5028934;28;20076;-68
2021/10/13 05:50:36;;;;;;;11.45;8.20;;;;;;;;;;5046206;28;20135;-69
2021/10/13 05:53:22;;;;;;;13.65;8.90;;;;;;;;;;5054482;28;20033;-63
2021/10/13 05:56:07;;;;;;;16.20;9.68;;;;;;;;;;5052870;28;20047;-65
2021/10/13 05:58:54;;;;;;;13.55;9.77;;;;;;;;;;5049443;28;20475;-67
2021/10/13 06:01:39;;;;;;;14.57;9.75;;;;;;;;;;5047820;28;20044;-65
2021/10/13 06:04:24;;;;;;;15.35;9.60;;;;;;;;;;5042860;28;20379;-69
2021/10/13 06:07:10;;;;;;;15.63;10.50;;;;;;;;;;5025480;28;20035;-65
2021/10/13 06:09:55;;;;;;;14.63;10.63;;;;;;;;;;5024254;28;20515;-66
2021/10/13 06:12:40;;;;;;;16.63;11.15;;;;;;;;;;5028022;28;20037;-67
2021/10/13 06:15:30;;;;;;;18.63;11.63;;;;;;;;;;5028934;28;20353;-67
2021/10/13 06:18:15;;;;;;;17.60;11.65;;;;;;;;;;5047717;28;20130;-67
2021/10/13 06:21:01;;;;;;;16.10;11.52;;;;;;;;;;5036490;28;20191;-66
2021/10/13 06:23:46;;;;;;;19.48;11.60;;;;;;;;;;5057667;28;20045;-70
2021/10/13 06:26:31;;;;;;;15.00;10.70;;;;;;;;;;5039421;28;20089;-68
2021/10/13 06:29:17;;;;;;;16.65;10.80;;;;;;;;;;5052062;28;20043;-62
2021/10/13 06:32:02;;;;;;;20.52;12.20;;;;;;;;;;5052441;28;20399;-74
2021/10/13 06:34:47;;;;;;;17.58;12.50;;;;;;;;;;5042679;28;20654;-77
2021/10/13 06:37:33;;;;;;;19.33;13.55;;;;;;;;;;5041207;28;20047;-77
2021/10/13 06:40:18;;;;;;;18.20;11.90;;;;;;;;;;5036968;28;20082;-76
2021/10/13 06:43:04;;;;;;;14.50;10.77;;;;;;;;;;5050201;28;20090;-77
2021/10/13 06:45:50;;;;;;;15.70;11.07;;;;;;;;;;5041554;28;20071;-77
2021/10/13 06:48:35;;;;;;;18.15;12.00;;;;;;;;;;5040538;28;20041;-69
2021/10/13 06:51:20;;;;;;;16.73;11.48;;;;;;;;;;5045990;28;20036;-63
2021/10/13 06:54:05;;;;;;;17.38;11.48;;;;;;;;;;5036430;28;20017;-69
2021/10/13 06:56:51;;;;;;;16.23;10.80;;;;;;;;;;5035626;28;20676;-69
2021/10/13 06:59:36;;;;;;;22.95;11.30;;;;;;;;;;5021738;28;20045;-65
2021/10/13 07:02:21;;;;;;;17.83;10.70;;;;;;;;;;5042545;28;20047;-64
2021/10/13 07:05:06;;;;;;;16.85;10.77;;;;;;;;;;5046035;28;20144;-62
2021/10/13 07:07:52;;;;;;;14.60;10.35;;;;;;;;;;5042297;28;20063;-69
2021/10/13 07:10:37;;;;;;;15.25;10.30;;;;;;;;;;5031499;28;20050;-77
2021/10/13 07:13:22;;;;;;;16.30;9.80;;;;;;;;;;5035857;28;20507;-80
2021/10/13 07:16:08;;;;;;;15.95;10.07;;;;;;;;;;5046435;28;20032;-79
2021/10/13 07:18:53;;;;;;;18.38;10.02;;;;;;;;;;5056362;28;20028;-76
2021/10/13 07:21:38;;;;;;;16.77;10.90;;;;;;;;;;5028046;28;20036;-77
2021/10/13 07:24:23;;;;;;;14.35;9.45;;;;;;;;;;5032145;28;20037;-63
2021/10/13 07:27:09;;;;;;;13.40;9.48;;;;;;;;;;5045131;28;20028;-66
2021/10/13 07:29:56;;;;;;;15.18;9.32;;;;;;;;;;5044750;28;20035;-66
2021/10/13 07:32:42;;;;;;;15.10;9.18;;;;;;;;;;5041121;28;20041;-69
2021/10/13 07:35:29;;;;;;;15.13;8.85;;;;;;;;;;5043928;28;20544;-66
2021/10/13 07:38:17;;;;;;;14.30;9.25;;;;;;;;;;5036875;28;20041;-65
2021/10/13 07:41:03;;;;;;;15.32;8.70;;;;;;;;;;5043360;28;20055;-67
2021/10/13 07:43:48;;;;;;;18.85;10.25;;;;;;;;;;5060223;28;20071;-63
2021/10/13 07:46:33;;;;;;;12.82;8.77;;;;;;;;;;5040570;28;20036;-75
2021/10/13 07:49:18;;;;;;;14.35;9.25;;;;;;;;;;5030554;28;20037;-75
2021/10/13 07:52:04;;;;;;;14.52;9.80;;;;;;;;;;5046395;28;20041;-78
2021/10/13 07:54:49;;;;;;;13.77;9.20;;;;;;;;;;5029801;28;20032;-82
2021/10/13 07:57:35;;;;;;;15.10;9.85;;;;;;;;;;5045119;28;20525;-78
2021/10/13 08:00:20;;;;;;;12.65;8.63;;;;;;;;;;5058892;28;20061;-68
2021/10/13 08:03:05;;;;;;;14.23;8.48;;;;;;;;;;5035890;28;20044;-64
2021/10/13 08:05:51;;;;;;;15.30;9.10;;;;;;;;;;5043891;28;20634;-65
2021/10/13 08:08:36;;;;;;;13.77;8.18;;;;;;;;;;5036169;28;20041;-68
2021/10/13 08:11:21;;;;;;;13.65;7.65;;;;;;;;;;5044882;28;20030;-65
2021/10/13 08:14:06;;;;;;;12.68;7.70;;;;;;;;;;5045435;28;20118;-66
2021/10/13 08:16:53;;;;;;;10.38;7.18;;;;;;;;;;5048257;28;20135;-64
2021/10/13 08:19:38;;;;;;;12.88;7.40;;;;;;;;;;5046595;28;20556;-65
2021/10/13 08:22:23;;;;;;;12.02;7.68;;;;;;;;;;5035298;28;20052;-78
2021/10/13 08:25:09;;;;;;;15.65;7.80;;;;;;;;;;5030734;28;20033;-76
2021/10/13 08:27:55;;;;;;;12.55;6.60;;;;;;;;;;5036669;28;20044;-68
2021/10/13 08:30:40;;;;;;;11.00;6.75;;;;;;;;;;5045805;28;20035;-70
2021/10/13 08:33:25;;;;;;;12.50;6.18;;;;;;;;;;5042016;28;20044;-68
2021/10/13 08:36:10;;;;;;;11.55;6.72;;;;;;;;;;5031551;28;20037;-68
2021/10/13 08:38:56;;;;;;;13.30;6.93;;;;;;;;;;5038500;28;20522;-64
2021/10/13 08:41:41;;;;;;;10.40;5.80;;;;;;;;;;5037541;28;20036;-74
2021/10/13 08:44:26;;;;;;;12.02;5.55;;;;;;;;;;5038415;28;20427;-73
2021/10/13 08:47:12;;;;;;;15.93;7.68;;;;;;;;;;5046940;28;20044;-74
2021/10/13 08:49:57;;;;;;;15.55;8.23;;;;;;;;;;5056030;28;20630;-73
2021/10/13 08:52:42;;;;;;;13.68;8.48;;;;;;;;;;5055892;28;20110;-74
2021/10/13 08:55:28;;;;;;;18.48;8.75;;;;;;;;;;5037234;28;20501;-75
2021/10/13 08:58:13;;;;;;;16.48;10.35;;;;;;;;;;5033779;28;20073;-64
2021/10/13 09:01:04;;;;;;;15.68;11.98;;;;;;;;;;5037910;28;20033;-68
2021/10/13 09:03:57;;;;;;;16.45;10.68;;;;;;;;;;5044635;28;20047;-66
2021/10/13 09:06:43;;;;;;;19.48;11.35;;;;;;;;;;5055238;28;20054;-64
2021/10/13 09:09:28;;;;;;;18.98;11.75;;;;;;;;;;5042631;28;20108;-63
2021/10/13 09:12:27;;;;;;;17.23;10.35;;;;;;;;;;5044537;28;20055;-67
2021/10/13 09:15:13;;;;;;;19.10;11.32;;;;;;;;;;5047949;28;20379;-76
2021/10/13 09:18:05;;;;;;;16.02;10.07;;;;;;;;;;5049358;28;20070;-77
2021/10/13 09:20:51;;;;;;;18.73;10.25;;;;;;;;;;5047481;28;20033;-79
2021/10/13 09:23:36;;;;;;;16.77;10.25;;;;;;;;;;5043792;28;20036;-75
2021/10/13 09:26:24;;;;;;;16.58;8.43;;;;;;;;;;5046690;28;20044;-76
2021/10/13 09:29:10;;;;;;;14.50;7.55;;;;;;;;;;5048986;28;20037;-77
2021/10/13 09:31:56;;;;;;;13.85;7.40;;;;;;;;;;5042906;28;20032;-68
2021/10/13 09:34:45;;;;;;;18.10;8.48;;;;;;;;;;5042204;28;20024;-66
2021/10/13 09:37:50;;;;;;;10.20;5.57;;;;;;;;;;5046508;28;20086;-67
2021/10/13 09:40:35;;;;;;;13.18;6.97;;;;;;;;;;5049806;28;20036;-66
2021/10/13 09:43:33;;;;;;;11.30;5.63;;;;;;;;;;5039547;28;20397;-65
2021/10/13 09:46:20;;;;;;;8.13;4.78;;;;;;;;;;5044166;28;20079;-65
2021/10/13 09:49:06;;;;;;;9.40;4.32;;;;;;;;;;5035776;28;20045;-68
2021/10/13 09:51:51;;;;;;;11.77;5.20;;;;;;;;;;5042455;28;20147;-66
2021/10/13 09:54:37;;;;;;;10.55;4.55;;;;;;;;;;5045710;28;20040;-76
2021/10/13 09:57:23;;;;;;;9.05;5.07;;;;;;;;;;5035365;28;20036;-77
2021/10/13 10:00:11;;;;;;;10.40;4.60;;;;;;;;;;5043754;28;20086;-75
2021/10/13 10:02:57;;;;;;;10.10;4.38;;;;;;;;;;5059253;28;20036;-75
2021/10/13 10:05:42;;;;;;;7.53;4.32;;;;;;;;;;5035920;28;20044;-75
2021/10/13 10:08:27;;;;;;;14.00;5.05;;;;;;;;;;5043463;28;20017;-80
2021/10/13 10:11:15;;;;;;;10.55;4.30;;;;;;;;;;5037657;28;20052;-68
2021/10/13 10:14:02;;;;;;;10.25;3.65;;;;;;;;;;5045545;28;20089;-76
2021/10/13 10:16:49;;;;;;;10.45;4.57;;;;;;;;;;5045480;28;20036;-74
2021/10/13 10:19:39;;;;;;;10.10;4.45;;;;;;;;;;5048131;28;20467;-77
2021/10/13 10:22:24;;;;;;;10.35;6.15;;;;;;;;;;5041734;28;20115;-78
2021/10/13 10:25:10;;;;;;;8.15;5.80;;;;;;;;;;5044738;28;20029;-79
2021/10/13 10:27:55;;;;;;;9.18;6.93;;;;;;;;;;5048444;28;20367;-71
2021/10/13 10:30:40;;;;;;;8.18;6.60;;;;;;;;;;5038794;28;20543;-62
2021/10/13 10:33:25;;;;;;;6.13;3.20;;;;;;;;;;5043896;28;20032;-62
2021/10/13 10:36:10;;;;;;;7.32;2.95;;;;;;;;;;5031929;28;20506;-62
2021/10/13 10:38:56;;;;;;;8.77;2.45;;;;;;;;;;5031806;28;20037;-63
2021/10/13 10:41:41;;;;;;;6.63;2.40;;;;;;;;;;5058676;28;20033;-60
2021/10/13 10:44:27;;;;;;;10.88;3.67;;;;;;;;;;5043444;28;20036;-61
2021/10/13 10:47:16;;;;;;;9.70;4.22;;;;;;;;;;5038183;28;20107;-61
2021/10/13 10:50:04;;;;;;;12.20;5.50;;;;;;;;;;5033252;28;20104;-67
2021/10/13 10:53:06;;;;;;;9.33;3.97;;;;;;;;;;5051008;28;20036;-68
2021/10/13 10:55:51;;;;;;;4.95;3.03;;;;;;;;;;5052558;28;20078;-67
2021/10/13 10:58:37;;;;;;;8.70;3.80;;;;;;;;;;5044675;28;20370;-65
2021/10/13 11:01:23;;;;;;;12.82;4.57;;;;;;;;;;5014581;28;20116;-64
2021/10/13 11:04:09;;;;;;;13.48;5.38;;;;;;;;;;5042408;28;20635;-63
2021/10/13 11:06:55;;;;;;;12.88;7.88;;;;;;;;;;5043727;28;20036;-68
2021/10/13 11:09:40;;;;;;;14.27;7.57;;;;;;;;;;5036983;28;20032;-69
2021/10/13 11:12:27;;;;;;;11.32;7.00;;;;;;;;;;5034690;28;20052;-67
2021/10/13 11:15:12;;;;;;;12.90;6.93;;;;;;;;;;5054989;28;20032;-67
2021/10/13 11:18:09;;;;;;;10.23;6.32;;;;;;;;;;5042789;28;20059;-68
2021/10/13 11:20:54;;;;;;;12.10;6.00;;;;;;;;;;5029753;28;20056;-67
2021/10/13 11:23:40;;;;;;;9.88;5.07;;;;;;;;;;5040888;28;20051;-71
2021/10/13 11:26:26;;;;;;;9.73;4.85;;;;;;;;;;5036112;28;20032;-74
2021/10/13 11:29:18;;;;;;;12.27;3.83;;;;;;;;;;5041784;28;20056;-74
2021/10/13 11:32:09;;;;;;;5.80;3.00;;;;;;;;;;5044697;28;20124;-75
2021/10/13 11:34:58;;;;;;;7.15;4.07;;;;;;;;;;5043647;28;20119;-74
2021/10/13 11:37:51;;;;;;;9.60;4.13;;;;;;;;;;5033035;28;20352;-74
2021/10/13 11:40:36;;;;;;;8.55;4.13;;;;;;;;;;5037571;28;20522;-69
2021/10/13 11:43:22;;;;;;;9.52;4.53;;;;;;;;;;5039921;28;20130;-65
2021/10/13 11:46:13;;;;;;;8.98;4.25;;;;;;;;;;5030004;28;20041;-66
2021/10/13 11:49:01;;;;;;;7.07;3.67;;;;;;;;;;5032590;28;20040;-66
2021/10/13 11:52:05;;;;;;;6.43;3.53;;;;;;;;;;5036292;28;20037;-66
2021/10/13 11:54:58;;;;;;;7.20;3.20;;;;;;;;;;5045973;28;20063;-65
2021/10/13 11:57:51;;;;;;;8.35;2.80;;;;;;;;;;5041522;28;20043;-66
2021/10/13 12:00:46;;;;;;;7.30;2.63;;;;;;;;;;5043779;28;20043;-80
2021/10/13 12:03:35;;;;;;;4.45;1.90;;;;;;;;;;5026742;28;20032;-75
2021/10/13 12:06:20;;;;;;;4.53;2.00;;;;;;;;;;5035659;28;20060;-74
2021/10/13 12:09:07;;;;;;;3.08;1.60;;;;;;;;;;5049347;28;20056;-74
2021/10/13 12:11:52;;;;;;;5.82;1.90;;;;;;;;;;5032984;28;20045;-74
2021/10/13 12:14:37;;;;;;;2.10;1.30;;;;;;;;;;5018299;28;20476;-75
2021/10/13 12:17:24;;;;;;;3.08;1.52;;;;;;;;;;5043828;28;20028;-76
2021/10/13 12:20:16;;;;;;;3.05;1.15;;;;;;;;;;5031942;28;20646;-62
2021/10/13 12:23:08;;;;;;;3.45;1.30;;;;;;;;;;5047715;28;20043;-65
2021/10/13 12:25:54;;;;;;;4.20;1.35;;;;;;;;;;5041721;28;20029;-64
2021/10/13 12:28:39;;;;;;;3.13;1.45;;;;;;;;;;5038374;28;20035;-64
2021/10/13 12:31:26;;;;;;;3.10;1.40;;;;;;;;;;5041929;28;20034;-69
2021/10/13 12:34:14;;;;;;;6.63;1.30;;;;;;;;;;5045713;28;20029;-64
2021/10/13 12:36:59;;;;;;;2.35;1.40;;;;;;;;;;5043430;28;20466;-69
2021/10/13 12:39:44;;;;;;;1.90;1.00;;;;;;;;;;5058975;28;20040;-79
2021/10/13 12:42:30;;;;;;;1.38;0.98;;;;;;;;;;5043383;28;20514;-79
2021/10/13 12:45:21;;;;;;;2.55;1.25;;;;;;;;;;5040928;28;20040;-78
2021/10/13 12:48:17;;;;;;;2.22;1.10;;;;;;;;;;5041790;28;20045;-71
2021/10/13 12:51:03;;;;;;;1.10;0.88;;;;;;;;;;5054345;28;20539;-71
2021/10/13 12:53:49;;;;;;;2.50;1.17;;;;;;;;;;5054191;28;20481;-70
2021/10/13 12:56:34;;;;;;;2.47;1.45;;;;;;;;;;5042680;28;20467;-69
2021/10/13 12:59:19;;;;;;;1.83;1.23;;;;;;;;;;5061526;28;20586;-83
2021/10/13 13:02:05;;;;;;;2.45;1.23;;;;;;;;;;5040752;28;20059;-79
2021/10/13 13:04:50;;;;;;;3.13;1.38;;;;;;;;;;5041131;28;20037;-80
2021/10/13 13:07:35;;;;;;;4.43;1.70;;;;;;;;;;5036630;28;20032;-81
2021/10/13 13:10:21;;;;;;;2.08;1.40;;;;;;;;;;5035539;28;20749;-80
2021/10/13 13:13:06;;;;;;;2.55;1.08;;;;;;;;;;5022187;28;20175;-69
2021/10/13 13:15:53;;;;;;;4.82;1.60;;;;;;;;;;5021651;28;20095;-63
2021/10/13 13:18:41;;;;;;;3.65;1.70;;;;;;;;;;5044701;28;20171;-68
2021/10/13 13:21:26;;;;;;;8.98;1.75;;;;;;;;;;5044505;28;20413;-68
2021/10/13 13:24:12;;;;;;;3.72;1.50;;;;;;;;;;5046940;28;20048;-68
2021/10/13 13:26:57;;;;;;;2.72;1.48;;;;;;;;;;5046220;28;20095;-67
2021/10/13 13:29:43;;;;;;;5.50;1.50;;;;;;;;;;5033664;28;20495;-70
2021/10/13 13:32:28;;;;;;;5.95;1.75;;;;;;;;;;5030039;28;20043;-75
2021/10/13 13:35:13;;;;;;;2.72;1.38;;;;;;;;;;5043540;28;20483;-71
2021/10/13 13:37:58;;;;;;;4.93;1.52;;;;;;;;;;5044458;28;20363;-70
2021/10/13 13:40:44;;;;;;;2.53;1.27;;;;;;;;;;5038414;28;20083;-73
2021/10/13 13:43:29;;;;;;;3.58;1.55;;;;;;;;;;5039209;28;20036;-71
2021/10/13 13:46:15;;;;;;;4.72;1.85;;;;;;;;;;5048699;28;20429;-72
2021/10/13 13:49:00;;;;;;;6.00;2.30;;;;;;;;;;5039368;28;20155;-74
2021/10/13 13:51:46;;;;;;;4.85;1.70;;;;;;;;;;5060103;28;20032;-77
2021/10/13 13:54:31;;;;;;;3.45;1.73;;;;;;;;;;5046873;28;20152;-75
2021/10/13 13:57:16;;;;;;;4.80;1.77;;;;;;;;;;5037170;28;20029;-71
2021/10/13 14:00:03;;;;;;;3.30;1.65;;;;;;;;;;5032359;28;20491;-74
2021/10/13 14:02:51;;;;;;;5.70;2.20;;;;;;;;;;5057805;28;20063;-74
2021/10/13 14:05:37;;;;;;;6.97;2.22;;;;;;;;;;5028787;28;20087;-74
2021/10/13 14:08:22;;;;;;;6.80;2.30;;;;;;;;;;5033896;28;20094;-69
2021/10/13 14:11:07;;;;;;;3.90;1.88;;;;;;;;;;5017906;28;20045;-67
2021/10/13 14:13:53;;;;;;;12.15;3.38;;;;;;;;;;5030884;28;20048;-67
2021/10/13 14:16:38;;;;;;;2.90;1.90;;;;;;;;;;5031486;28;20128;-68
2021/10/13 14:19:23;;;;;;;5.25;2.03;;;;;;;;;;5032275;28;20029;-64
2021/10/13 14:22:09;;;;;;;3.90;1.77;;;;;;;;;;5034079;28;20463;-66
2021/10/13 14:24:54;;;;;;;2.92;1.80;;;;;;;;;;5027268;28;20561;-65
2021/10/13 14:27:39;;;;;;;2.90;1.70;;;;;;;;;;5034717;28;20037;-72
2021/10/13 14:30:25;;;;;;;4.28;1.85;;;;;;;;;;5035700;28;20041;-69
2021/10/13 14:33:10;;;;;;;3.95;2.28;;;;;;;;;;5032957;28;20099;-66
2021/10/13 14:35:55;;;;;;;2.47;1.98;;;;;;;;;;5034818;28;20040;-68
2021/10/13 14:38:40;;;;;;;4.90;2.13;;;;;;;;;;5029710;28;20068;-67
2021/10/13 14:41:26;;;;;;;4.50;1.90;;;;;;;;;;5029488;28;20044;-67
2021/10/13 14:44:11;;;;;;;5.40;2.20;;;;;;;;;;5039117;28;20040;-70
2021/10/13 14:46:57;;;;;;;3.13;1.98;;;;;;;;;;5041729;28;20065;-72
2021/10/13 14:49:42;;;;;;;5.93;2.20;;;;;;;;;;5036317;28;20524;-65
2021/10/13 14:52:27;;;;;;;7.35;2.75;;;;;;;;;;5032638;28;20041;-68
2021/10/13 14:55:13;;;;;;;5.88;2.53;;;;;;;;;;5046761;28;20036;-68
2021/10/13 14:57:58;;;;;;;6.47;2.53;;;;;;;;;;5046976;28;20075;-67
2021/10/13 15:00:43;;;;;;;5.90;2.65;;;;;;;;;;5055457;28;20028;-67
2021/10/13 15:03:29;;;;;;;4.13;2.50;;;;;;;;;;5037794;28;20119;-68
2021/10/13 15:06:14;;;;;;;6.50;2.85;;;;;;;;;;5038537;28;20590;-76
2021/10/13 15:08:59;;;;;;;3.65;2.47;;;;;;;;;;5037090;28;20036;-75
2021/10/13 15:11:45;;;;;;;3.95;2.20;;;;;;;;;;5040020;28;20561;-74
2021/10/13 15:14:30;;;;;;;5.60;2.60;;;;;;;;;;5043305;28;20540;-74
2021/10/13 15:17:16;;;;;;;3.35;1.85;;;;;;;;;;5040950;28;20032;-76
2021/10/13 15:20:02;;;;;;;5.13;2.55;;;;;;;;;;5033162;28;20123;-77
2021/10/13 15:22:48;;;;;;;6.50;2.58;;;;;;;;;;5040521;28;20186;-73
2021/10/13 15:25:33;;;;;;;4.10;2.17;;;;;;;;;;5044374;28;20437;-66
2021/10/13 15:28:18;;;;;;;4.45;2.25;;;;;;;;;;5050758;28;20064;-65
2021/10/13 15:31:04;;;;;;;5.90;2.33;;;;;;;;;;5031660;28;20081;-64
2021/10/13 15:33:49;;;;;;;5.60;2.70;;;;;;;;;;5044093;28;20028;-66
2021/10/13 15:36:34;;;;;;;7.75;2.92;;;;;;;;;;5051901;28;20032;-66
2021/10/13 15:39:20;;;;;;;5.30;3.22;;;;;;;;;;5021552;28;20037;-69
2021/10/13 15:42:06;;;;;;;10.70;3.67;;;;;;;;;;5045873;28;20037;-74
2021/10/13 15:44:51;;;;;;;7.47;3.10;;;;;;;;;;5047338;28;20040;-73
2021/10/13 15:47:37;;;;;;;10.18;3.80;;;;;;;;;;5035547;28;20079;-73
2021/10/13 15:50:22;;;;;;;6.68;3.40;;;;;;;;;;5043562;28;20040;-72
2021/10/13 15:53:08;;;;;;;3.85;2.10;;;;;;;;;;5045086;28;20120;-72
2021/10/13 15:55:54;;;;;;;5.00;2.53;;;;;;;;;;5033398;28;21215;-71
2021/10/13 15:58:39;;;;;;;6.30;2.95;;;;;;;;;;5064711;28;20032;-73
2021/10/13 16:01:24;;;;;;;8.07;2.55;;;;;;;;;;5033604;28;20036;-70
2021/10/13 16:04:10;;;;;;;6.32;2.70;;;;;;;;;;5040599;28;20064;-71
2021/10/13 16:06:55;;;;;;;4.80;2.35;;;;;;;;;;5034643;28;20043;-72
2021/10/13 16:09:40;;;;;;;6.82;2.35;;;;;;;;;;5048464;28;20032;-71
2021/10/13 16:12:29;;;;;;;5.00;1.88;;;;;;;;;;5043165;28;20086;-69
2021/10/13 16:15:14;;;;;;;4.68;2.17;;;;;;;;;;5046571;28;20108;-71
2021/10/13 16:17:59;;;;;;;2.78;1.95;;;;;;;;;;5048589;28;20167;-71
2021/10/13 16:20:45;;;;;;;7.20;2.25;;;;;;;;;;5043222;28;20043;-68
2021/10/13 16:23:30;;;;;;;3.67;2.03;;;;;;;;;;5043053;28;20349;-74
2021/10/13 16:26:16;;;;;;;5.43;2.55;;;;;;;;;;5028719;28;20033;-71
2021/10/13 16:29:01;;;;;;;5.18;2.53;;;;;;;;;;5053142;28;20136;-70
2021/10/13 16:31:48;;;;;;;9.57;3.30;;;;;;;;;;5053480;28;20562;-70
2021/10/13 16:34:34;;;;;;;6.03;2.38;;;;;;;;;;5054508;28;20398;-70
2021/10/13 16:37:19;;;;;;;6.38;2.53;;;;;;;;;;5050212;28;20050;-74
2021/10/13 16:40:05;;;;;;;3.95;1.90;;;;;;;;;;5032455;28;20085;-72
2021/10/13 16:42:50;;;;;;;4.70;2.50;;;;;;;;;;5048492;28;20036;-70
2021/10/13 16:45:35;;;;;;;6.95;2.20;;;;;;;;;;5068615;28;20047;-70
2021/10/13 16:48:21;;;;;;;6.28;2.30;;;;;;;;;;5048074;28;20511;-69
2021/10/13 16:51:06;;;;;;;4.60;2.28;;;;;;;;;;5039441;28;20036;-70
2021/10/13 16:53:52;;;;;;;2.95;1.80;;;;;;;;;;5043281;28;20025;-68
2021/10/13 16:56:37;;;;;;;5.60;2.25;;;;;;;;;;5035203;28;20048;-65
2021/10/13 16:59:24;;;;;;;5.15;2.45;;;;;;;;;;5038538;28;20054;-71
2021/10/13 17:02:10;;;;;;;4.80;2.33;;;;;;;;;;5047061;28;20166;-65
2021/10/13 17:04:55;;;;;;;7.85;2.53;;;;;;;;;;5050622;28;20029;-66
2021/10/13 17:07:40;;;;;;;3.33;2.00;;;;;;;;;;5034863;28;20040;-63
2021/10/13 17:10:25;;;;;;;3.58;2.03;;;;;;;;;;5059076;28;20120;-64
2021/10/13 17:13:11;;;;;;;4.95;2.17;;;;;;;;;;5046034;28;20060;-69
2021/10/13 17:15:56;;;;;;;5.05;2.85;;;;;;;;;;5047620;28;20136;-66
2021/10/13 17:18:42;;;;;;;6.05;2.38;;;;;;;;;;5048432;28;20040;-65
2021/10/13 17:21:27;;;;;;;11.07;2.53;;;;;;;;;;5048627;28;20072;-69
2021/10/13 17:24:13;;;;;;;6.90;2.10;;;;;;;;;;5039542;28;20512;-67
2021/10/13 17:26:58;;;;;;;4.93;2.10;;;;;;;;;;5049211;28;20033;-67